Time;durP1;ratioP1;P1;durP2;ratioP2;P2;SDS_P1;SDS_P2;PMS_P1;PMS_P2;Temp;Humidity;BMP_temperature;BMP_pressure;BME280_temperature;BME280_humidity;BME280_pressure;Samples;Min_cycle;Max_cycle;Signal;HPM_P1;HPM_P2
2021/10/10 00:01:26;;;;;;;;;;;25.40;31.70;;;;;;484111;246;2112;-73
2021/10/10 00:03:27;;;;;;;;;;;25.40;31.50;;;;;;484212;246;1063;-73
2021/10/10 00:05:29;;;;;;;;;;;25.60;31.50;;;;;;484170;246;939;-73
2021/10/10 00:07:30;;;;;;;;;;;25.40;31.40;;;;;;484067;246;1113;-73
2021/10/10 00:09:32;;;;;;;;;;;25.40;31.30;;;;;;484171;246;1195;-74
2021/10/10 00:11:33;;;;;;;;;;;25.40;31.60;;;;;;484109;246;1134;-73
2021/10/10 00:13:34;;;;;;;;;;;25.20;31.30;;;;;;484136;246;968;-73
2021/10/10 00:15:36;;;;;;;;;;;25.40;31.40;;;;;;484207;246;1097;-73
2021/10/10 00:17:37;;;;;;;;;;;25.10;31.70;;;;;;484184;246;947;-73
2021/10/10 00:19:38;;;;;;;;;;;25.40;31.40;;;;;;484135;246;2184;-73
2021/10/10 00:21:40;;;;;;;;;;;25.50;31.20;;;;;;484056;246;1019;-73
2021/10/10 00:23:41;;;;;;;;;;;25.50;31.20;;;;;;484106;246;943;-73
2021/10/10 00:25:42;;;;;;;;;;;25.40;31.30;;;;;;484177;246;1147;-74
2021/10/10 00:27:44;;;;;;;;;;;25.70;31.10;;;;;;484085;246;996;-73
2021/10/10 00:29:45;;;;;;;;;;;25.60;30.90;;;;;;484175;246;952;-73
2021/10/10 00:31:46;;;;;;;;;;;25.50;31.10;;;;;;484108;246;977;-73
2021/10/10 00:33:48;;;;;;;;;;;25.70;30.90;;;;;;484125;246;964;-73
2021/10/10 00:35:49;;;;;;;;;;;25.40;31.20;;;;;;484052;246;925;-74
2021/10/10 00:37:50;;;;;;;;;;;25.60;31.00;;;;;;484055;246;960;-73
2021/10/10 00:39:52;;;;;;;;;;;25.40;31.10;;;;;;484067;246;2188;-73
2021/10/10 00:41:53;;;;;;;;;;;25.40;30.80;;;;;;484056;246;968;-73
2021/10/10 00:43:54;;;;;;;;;;;25.20;31.20;;;;;;484114;246;1083;-73
2021/10/10 00:45:56;;;;;;;;;;;25.50;31.00;;;;;;484096;246;1247;-73
2021/10/10 00:47:57;;;;;;;;;;;25.60;30.90;;;;;;484154;246;1126;-73
2021/10/10 00:49:58;;;;;;;;;;;25.70;30.80;;;;;;484097;246;969;-73
2021/10/10 00:52:00;;;;;;;;;;;25.50;31.00;;;;;;484038;246;1119;-73
2021/10/10 00:54:01;;;;;;;;;;;25.60;30.80;;;;;;484047;246;1056;-73
2021/10/10 00:56:02;;;;;;;;;;;25.50;31.10;;;;;;483963;246;1277;-73
2021/10/10 00:58:04;;;;;;;;;;;25.50;30.80;;;;;;484028;246;1129;-73
2021/10/10 01:00:08;;;;;;;;;;;25.50;30.80;;;;;;484138;246;2117;-73
2021/10/10 01:02:07;;;;;;;;;;;25.60;30.60;;;;;;483879;246;1237;-73
2021/10/10 01:04:08;;;;;;;;;;;25.50;30.60;;;;;;484108;246;939;-73
2021/10/10 01:06:09;;;;;;;;;;;25.30;30.80;;;;;;484055;246;930;-73
2021/10/10 01:08:11;;;;;;;;;;;25.40;31.00;;;;;;484047;246;993;-73
2021/10/10 01:10:13;;;;;;;;;;;25.30;31.10;;;;;;484194;246;1142;-73
2021/10/10 01:12:13;;;;;;;;;;;25.60;30.70;;;;;;484069;246;1466;-73
2021/10/10 01:14:15;;;;;;;;;;;25.30;31.10;;;;;;484234;246;1082;-74
2021/10/10 01:16:16;;;;;;;;;;;25.40;30.70;;;;;;484086;246;1168;-73
2021/10/10 01:18:17;;;;;;;;;;;25.20;30.90;;;;;;484084;246;972;-73
2021/10/10 01:20:19;;;;;;;;;;;25.20;30.90;;;;;;484089;246;2184;-73
2021/10/10 01:22:20;;;;;;;;;;;25.30;30.70;;;;;;483993;246;1187;-73
2021/10/10 01:24:21;;;;;;;;;;;25.50;30.80;;;;;;484095;246;919;-73
2021/10/10 01:26:23;;;;;;;;;;;25.20;30.50;;;;;;484047;246;1227;-73
2021/10/10 01:28:24;;;;;;;;;;;25.60;30.50;;;;;;484094;246;1199;-73
2021/10/10 01:30:25;;;;;;;;;;;25.60;30.50;;;;;;484138;246;945;-73
2021/10/10 01:32:27;;;;;;;;;;;25.60;30.30;;;;;;484073;246;1079;-73
2021/10/10 01:34:28;;;;;;;;;;;25.70;30.50;;;;;;484138;246;975;-74
2021/10/10 01:36:29;;;;;;;;;;;25.70;30.30;;;;;;484112;246;1221;-73
2021/10/10 01:38:31;;;;;;;;;;;25.70;30.30;;;;;;484193;246;1061;-73
2021/10/10 01:40:33;;;;;;;;;;;25.50;30.40;;;;;;484124;246;2128;-73
2021/10/10 01:42:34;;;;;;;;;;;25.60;30.30;;;;;;484032;246;1404;-73
2021/10/10 01:44:35;;;;;;;;;;;25.40;30.40;;;;;;484138;246;945;-73
2021/10/10 01:46:36;;;;;;;;;;;25.30;30.50;;;;;;484129;246;1217;-73
2021/10/10 01:48:38;;;;;;;;;;;25.60;30.40;;;;;;484128;246;1117;-73
2021/10/10 01:50:39;;;;;;;;;;;25.40;30.30;;;;;;484098;246;1113;-73
2021/10/10 01:52:40;;;;;;;;;;;25.50;30.20;;;;;;483977;242;1191;-73
2021/10/10 01:54:42;;;;;;;;;;;25.40;30.50;;;;;;484099;246;1003;-73
2021/10/10 01:56:43;;;;;;;;;;;25.10;30.40;;;;;;484005;246;1237;-73
2021/10/10 01:58:44;;;;;;;;;;;25.40;30.30;;;;;;484038;246;1126;-73
2021/10/10 02:00:46;;;;;;;;;;;25.60;30.40;;;;;;484108;246;2192;-73
2021/10/10 02:02:47;;;;;;;;;;;25.40;30.20;;;;;;484186;246;1066;-74
2021/10/10 02:04:48;;;;;;;;;;;25.40;30.30;;;;;;484169;246;926;-73
2021/10/10 02:06:50;;;;;;;;;;;25.40;30.30;;;;;;484154;246;1114;-73
2021/10/10 02:08:51;;;;;;;;;;;25.50;30.20;;;;;;484182;246;924;-73
2021/10/10 02:10:52;;;;;;;;;;;25.60;30.10;;;;;;484112;246;1287;-73
2021/10/10 02:12:54;;;;;;;;;;;25.60;30.10;;;;;;484126;246;1051;-73
2021/10/10 02:14:55;;;;;;;;;;;25.30;30.40;;;;;;484128;246;1002;-73
2021/10/10 02:16:56;;;;;;;;;;;25.60;30.10;;;;;;484009;246;982;-73
2021/10/10 02:18:58;;;;;;;;;;;25.50;30.10;;;;;;484102;246;956;-73
2021/10/10 02:20:59;;;;;;;;;;;25.50;30.10;;;;;;484074;246;2172;-73
2021/10/10 02:23:00;;;;;;;;;;;25.50;30.00;;;;;;484169;246;1147;-73
2021/10/10 02:25:02;;;;;;;;;;;25.60;30.20;;;;;;484153;246;941;-73
2021/10/10 02:27:03;;;;;;;;;;;25.40;30.10;;;;;;484105;246;1243;-73
2021/10/10 02:29:04;;;;;;;;;;;25.70;30.00;;;;;;484137;246;961;-73
2021/10/10 02:31:06;;;;;;;;;;;25.60;30.00;;;;;;484100;233;1188;-73
2021/10/10 02:33:07;;;;;;;;;;;25.40;30.10;;;;;;484149;246;952;-73
2021/10/10 02:35:08;;;;;;;;;;;25.40;30.00;;;;;;484125;246;964;-73
2021/10/10 02:37:10;;;;;;;;;;;25.50;30.10;;;;;;484042;246;1200;-73
2021/10/10 02:39:11;;;;;;;;;;;25.40;30.00;;;;;;484091;246;928;-73
2021/10/10 02:41:12;;;;;;;;;;;25.40;30.10;;;;;;484085;246;2113;-73
2021/10/10 02:43:14;;;;;;;;;;;25.40;30.10;;;;;;484049;246;1035;-73
2021/10/10 02:45:15;;;;;;;;;;;25.50;30.00;;;;;;484137;246;939;-73
2021/10/10 02:47:16;;;;;;;;;;;25.50;30.00;;;;;;484086;246;1192;-73
2021/10/10 02:49:18;;;;;;;;;;;25.40;30.00;;;;;;484125;246;1042;-73
2021/10/10 02:51:19;;;;;;;;;;;25.50;30.00;;;;;;484045;246;1291;-73
2021/10/10 02:53:20;;;;;;;;;;;25.10;30.00;;;;;;484103;246;957;-73
2021/10/10 02:55:22;;;;;;;;;;;25.50;30.10;;;;;;484128;246;1133;-73
2021/10/10 02:57:23;;;;;;;;;;;25.20;30.00;;;;;;484174;242;1125;-74
2021/10/10 02:59:24;;;;;;;;;;;25.40;30.00;;;;;;484075;246;956;-73
2021/10/10 03:01:26;;;;;;;;;;;25.40;30.00;;;;;;484140;246;2173;-73
2021/10/10 03:03:27;;;;;;;;;;;25.50;30.00;;;;;;484116;246;944;-73
2021/10/10 03:05:28;;;;;;;;;;;25.50;29.80;;;;;;484132;246;1072;-73
2021/10/10 03:07:29;;;;;;;;;;;25.60;29.80;;;;;;484097;246;1105;-73
2021/10/10 03:09:31;;;;;;;;;;;25.50;29.80;;;;;;484140;246;941;-73
2021/10/10 03:11:32;;;;;;;;;;;25.50;29.80;;;;;;484092;246;1284;-73
2021/10/10 03:13:33;;;;;;;;;;;25.50;29.80;;;;;;484085;246;981;-73
2021/10/10 03:15:35;;;;;;;;;;;25.40;29.90;;;;;;484095;246;1328;-73
2021/10/10 03:17:36;;;;;;;;;;;25.30;29.80;;;;;;484092;246;1115;-73
2021/10/10 03:19:38;;;;;;;;;;;25.60;29.80;;;;;;484123;246;1002;-73
2021/10/10 03:21:39;;;;;;;;;;;25.80;29.60;;;;;;484021;242;2133;-73
2021/10/10 03:23:40;;;;;;;;;;;25.70;29.60;;;;;;484057;246;990;-73
2021/10/10 03:25:42;;;;;;;;;;;25.70;29.60;;;;;;484165;246;1017;-73
2021/10/10 03:27:43;;;;;;;;;;;25.70;29.50;;;;;;484073;246;1136;-73
2021/10/10 03:29:44;;;;;;;;;;;25.70;29.60;;;;;;484116;246;1078;-73
2021/10/10 03:31:46;;;;;;;;;;;25.80;29.50;;;;;;484069;246;1214;-73
2021/10/10 03:33:47;;;;;;;;;;;25.80;29.50;;;;;;484114;246;1069;-74
2021/10/10 03:35:48;;;;;;;;;;;25.60;29.70;;;;;;484139;246;1183;-73
2021/10/10 03:37:50;;;;;;;;;;;25.80;29.50;;;;;;484081;246;1090;-73
2021/10/10 03:39:51;;;;;;;;;;;25.60;29.50;;;;;;484149;246;962;-73
2021/10/10 03:41:52;;;;;;;;;;;25.60;29.60;;;;;;484099;246;2193;-73
2021/10/10 03:43:54;;;;;;;;;;;25.60;29.60;;;;;;484195;246;964;-73
2021/10/10 03:45:55;;;;;;;;;;;25.80;29.50;;;;;;484102;246;1215;-73
2021/10/10 03:47:56;;;;;;;;;;;25.70;29.50;;;;;;484080;246;1256;-73
2021/10/10 03:49:58;;;;;;;;;;;25.60;29.50;;;;;;484144;246;940;-73
2021/10/10 03:51:59;;;;;;;;;;;25.60;29.50;;;;;;484066;246;1095;-73
2021/10/10 03:54:35;;;;;;;;;;;25.70;29.60;;;;;;484170;246;1135;-73
2021/10/10 03:56:15;;;;;;;;;;;25.70;29.60;;;;;;482352;246;1300;-73
2021/10/10 03:58:16;;;;;;;;;;;25.70;29.50;;;;;;484110;246;1153;-73
2021/10/10 04:00:17;;;;;;;;;;;25.70;29.50;;;;;;484145;246;922;-73
2021/10/10 04:02:19;;;;;;;;;;;25.50;29.50;;;;;;484157;246;2124;-73
2021/10/10 04:04:20;;;;;;;;;;;25.40;29.50;;;;;;484176;246;984;-73
2021/10/10 04:06:22;;;;;;;;;;;25.70;29.40;;;;;;484091;246;1246;-73
2021/10/10 04:08:23;;;;;;;;;;;25.60;29.60;;;;;;484127;246;953;-73
2021/10/10 04:10:24;;;;;;;;;;;25.70;29.50;;;;;;484074;246;995;-73
2021/10/10 04:12:26;;;;;;;;;;;25.70;29.50;;;;;;483973;246;1135;-73
2021/10/10 04:14:27;;;;;;;;;;;25.60;29.30;;;;;;484032;246;968;-73
2021/10/10 04:16:28;;;;;;;;;;;25.70;29.20;;;;;;484081;246;1299;-73
2021/10/10 04:18:30;;;;;;;;;;;25.80;29.20;;;;;;484125;246;937;-73
2021/10/10 04:20:31;;;;;;;;;;;25.90;29.20;;;;;;484138;246;940;-73
2021/10/10 04:22:32;;;;;;;;;;;25.90;29.20;;;;;;484106;246;2132;-73
2021/10/10 04:24:34;;;;;;;;;;;25.60;29.20;;;;;;484148;246;968;-73
2021/10/10 04:26:35;;;;;;;;;;;25.70;29.20;;;;;;484073;246;1216;-73
2021/10/10 04:28:36;;;;;;;;;;;25.80;29.20;;;;;;484138;246;1190;-73
2021/10/10 04:30:38;;;;;;;;;;;25.70;29.20;;;;;;484043;246;1435;-73
2021/10/10 04:32:39;;;;;;;;;;;25.80;29.10;;;;;;484007;246;1102;-73
2021/10/10 04:34:40;;;;;;;;;;;25.70;29.20;;;;;;484101;246;1338;-73
2021/10/10 04:36:42;;;;;;;;;;;25.60;29.00;;;;;;484030;246;1205;-73
2021/10/10 04:38:43;;;;;;;;;;;25.60;29.30;;;;;;484129;246;1038;-73
2021/10/10 04:40:44;;;;;;;;;;;25.40;29.30;;;;;;484006;246;1154;-73
2021/10/10 04:42:46;;;;;;;;;;;25.60;29.20;;;;;;484092;246;2195;-73
2021/10/10 04:44:47;;;;;;;;;;;25.40;29.20;;;;;;484120;246;974;-73
2021/10/10 04:46:48;;;;;;;;;;;25.60;29.30;;;;;;484073;246;1240;-73
2021/10/10 04:48:50;;;;;;;;;;;25.60;29.10;;;;;;484111;246;941;-73
2021/10/10 04:50:51;;;;;;;;;;;25.50;29.20;;;;;;484108;246;1189;-73
2021/10/10 04:52:52;;;;;;;;;;;25.40;29.30;;;;;;484097;246;1139;-73
2021/10/10 04:54:54;;;;;;;;;;;25.40;29.30;;;;;;484112;246;1046;-73
2021/10/10 04:56:55;;;;;;;;;;;25.40;29.20;;;;;;484041;246;1099;-73
2021/10/10 04:58:56;;;;;;;;;;;25.40;29.20;;;;;;484055;246;1202;-73
2021/10/10 05:00:57;;;;;;;;;;;25.40;29.30;;;;;;484098;246;1289;-73
2021/10/10 05:02:59;;;;;;;;;;;25.20;29.40;;;;;;484079;246;2192;-73
2021/10/10 05:05:00;;;;;;;;;;;25.10;29.30;;;;;;484151;246;945;-73
2021/10/10 05:07:02;;;;;;;;;;;25.40;29.30;;;;;;483978;246;1107;-73
2021/10/10 05:09:03;;;;;;;;;;;25.10;29.40;;;;;;484101;246;951;-74
2021/10/10 05:11:05;;;;;;;;;;;25.30;29.30;;;;;;483960;246;1194;-73
2021/10/10 05:13:06;;;;;;;;;;;25.60;29.10;;;;;;484052;246;1049;-73
2021/10/10 05:15:07;;;;;;;;;;;25.20;29.20;;;;;;484049;246;1234;-73
2021/10/10 05:17:09;;;;;;;;;;;25.30;29.10;;;;;;484026;246;1051;-73
2021/10/10 05:19:10;;;;;;;;;;;25.40;29.10;;;;;;484128;246;956;-73
2021/10/10 05:21:11;;;;;;;;;;;25.30;29.00;;;;;;484059;246;1198;-73
2021/10/10 05:23:15;;;;;;;;;;;25.50;28.90;;;;;;484051;246;2180;-73
2021/10/10 05:25:15;;;;;;;;;;;25.20;29.00;;;;;;483909;246;1581;-73
2021/10/10 05:27:15;;;;;;;;;;;25.40;29.00;;;;;;483934;246;1394;-74
2021/10/10 05:29:17;;;;;;;;;;;25.30;28.90;;;;;;484096;246;1160;-73
2021/10/10 05:31:18;;;;;;;;;;;25.50;29.00;;;;;;484035;246;1218;-73
2021/10/10 05:33:19;;;;;;;;;;;25.40;28.90;;;;;;484099;246;1110;-73
2021/10/10 05:35:21;;;;;;;;;;;25.50;28.80;;;;;;484133;246;1001;-73
2021/10/10 05:37:22;;;;;;;;;;;25.30;28.80;;;;;;483999;246;1207;-73
2021/10/10 05:39:24;;;;;;;;;;;25.30;28.90;;;;;;484058;246;1070;-73
2021/10/10 05:41:25;;;;;;;;;;;25.40;28.90;;;;;;484016;246;1174;-73
2021/10/10 05:43:27;;;;;;;;;;;25.30;28.80;;;;;;484108;246;2195;-73
2021/10/10 05:45:28;;;;;;;;;;;25.40;28.90;;;;;;484114;246;1220;-73
2021/10/10 05:47:29;;;;;;;;;;;25.50;28.80;;;;;;484078;246;1101;-73
2021/10/10 05:49:31;;;;;;;;;;;25.10;28.90;;;;;;484126;246;945;-73
2021/10/10 05:51:32;;;;;;;;;;;25.20;29.10;;;;;;484132;246;1177;-73
2021/10/10 05:53:33;;;;;;;;;;;25.30;29.00;;;;;;484119;246;945;-73
2021/10/10 05:55:37;;;;;;;;;;;25.10;29.10;;;;;;484160;246;1227;-73
2021/10/10 05:57:43;;;;;;;;;;;25.30;29.00;;;;;;484035;246;1387;-73
2021/10/10 05:59:38;;;;;;;;;;;25.20;29.10;;;;;;483555;246;1399;-73
2021/10/10 06:01:39;;;;;;;;;;;25.30;29.00;;;;;;483961;246;2200;-73
2021/10/10 06:03:40;;;;;;;;;;;25.20;29.00;;;;;;484063;246;972;-73
2021/10/10 06:05:42;;;;;;;;;;;25.20;29.10;;;;;;484079;246;1117;-73
2021/10/10 06:07:43;;;;;;;;;;;24.70;29.40;;;;;;484050;246;1158;-73
2021/10/10 06:09:44;;;;;;;;;;;25.20;29.10;;;;;;484115;246;942;-73
2021/10/10 06:11:45;;;;;;;;;;;25.30;29.00;;;;;;484145;246;1173;-73
2021/10/10 06:13:47;;;;;;;;;;;25.00;29.20;;;;;;484115;246;1177;-73
2021/10/10 06:15:49;;;;;;;;;;;25.10;29.20;;;;;;484117;246;968;-73
2021/10/10 06:17:49;;;;;;;;;;;25.10;29.20;;;;;;483978;246;1354;-74
2021/10/10 06:19:51;;;;;;;;;;;25.00;29.30;;;;;;484163;246;910;-73
2021/10/10 06:21:52;;;;;;;;;;;25.10;29.30;;;;;;483993;246;2157;-73
2021/10/10 06:23:53;;;;;;;;;;;25.10;29.30;;;;;;484075;246;922;-73
2021/10/10 06:25:55;;;;;;;;;;;25.00;29.30;;;;;;484075;246;1156;-73
2021/10/10 06:27:56;;;;;;;;;;;25.00;29.30;;;;;;484098;246;1162;-74
2021/10/10 06:29:57;;;;;;;;;;;24.90;29.60;;;;;;484164;246;1210;-73
2021/10/10 06:31:59;;;;;;;;;;;24.90;29.50;;;;;;483979;246;1130;-73
2021/10/10 06:34:00;;;;;;;;;;;24.90;29.50;;;;;;484044;246;1139;-73
2021/10/10 06:36:01;;;;;;;;;;;25.10;29.40;;;;;;484088;246;1252;-73
2021/10/10 06:38:03;;;;;;;;;;;25.20;29.40;;;;;;484053;246;1102;-73
2021/10/10 06:40:04;;;;;;;;;;;25.20;29.40;;;;;;484089;246;1030;-73
2021/10/10 06:42:05;;;;;;;;;;;25.20;29.40;;;;;;484007;246;2212;-73
2021/10/10 06:44:08;;;;;;;;;;;24.90;29.50;;;;;;484022;246;1206;-73
2021/10/10 06:46:08;;;;;;;;;;;25.00;29.50;;;;;;483997;246;1494;-74
2021/10/10 06:48:09;;;;;;;;;;;24.90;29.50;;;;;;484051;246;956;-73
2021/10/10 06:50:11;;;;;;;;;;;25.10;29.50;;;;;;484104;246;960;-73
2021/10/10 06:52:13;;;;;;;;;;;25.40;29.30;;;;;;484127;246;1135;-74
2021/10/10 06:54:14;;;;;;;;;;;25.30;29.30;;;;;;484149;246;986;-73
2021/10/10 06:56:15;;;;;;;;;;;25.40;29.20;;;;;;484017;246;1192;-73
2021/10/10 06:58:17;;;;;;;;;;;25.50;29.20;;;;;;484019;246;1097;-74
2021/10/10 07:00:18;;;;;;;;;;;25.30;29.30;;;;;;484080;246;1143;-74
2021/10/10 07:02:19;;;;;;;;;;;25.50;29.30;;;;;;484106;246;2141;-74
2021/10/10 07:04:21;;;;;;;;;;;25.40;29.30;;;;;;484129;246;1111;-73
2021/10/10 07:06:22;;;;;;;;;;;25.30;29.30;;;;;;484118;246;1227;-74
2021/10/10 07:08:24;;;;;;;;;;;25.40;29.30;;;;;;484184;246;965;-73
2021/10/10 07:10:25;;;;;;;;;;;25.10;29.30;;;;;;484190;246;945;-73
2021/10/10 07:12:26;;;;;;;;;;;25.20;29.50;;;;;;484162;246;1045;-73
2021/10/10 07:14:30;;;;;;;;;;;25.20;29.50;;;;;;484134;246;1172;-73
2021/10/10 07:16:29;;;;;;;;;;;25.50;29.40;;;;;;483884;246;1427;-74
2021/10/10 07:18:38;;;;;;;;;;;25.30;29.40;;;;;;484075;246;964;-73
2021/10/10 07:20:47;;;;;;;;;;;25.20;29.60;;;;;;483497;246;1420;-73
2021/10/10 07:22:56;;;;;;;;;;;25.50;29.50;;;;;;483563;246;2192;-73
2021/10/10 07:25:06;;;;;;;;;;;25.20;29.60;;;;;;483306;246;1404;-73
2021/10/10 07:27:07;;;;;;;;;;;25.40;29.50;;;;;;484055;246;1101;-73
2021/10/10 07:29:08;;;;;;;;;;;25.20;29.70;;;;;;484116;246;1051;-73
2021/10/10 07:31:09;;;;;;;;;;;25.40;29.60;;;;;;484060;242;1185;-73
2021/10/10 07:33:11;;;;;;;;;;;25.50;29.50;;;;;;484168;246;1123;-73
2021/10/10 07:35:12;;;;;;;;;;;25.60;29.50;;;;;;484116;246;1033;-73
2021/10/10 07:37:13;;;;;;;;;;;25.40;29.50;;;;;;483996;246;1039;-73
2021/10/10 07:39:15;;;;;;;;;;;25.60;29.50;;;;;;484084;246;1069;-73
2021/10/10 07:41:16;;;;;;;;;;;25.60;29.40;;;;;;484060;246;1195;-73
2021/10/10 07:43:17;;;;;;;;;;;25.40;29.60;;;;;;484144;246;2197;-73
2021/10/10 07:45:22;;;;;;;;;;;25.40;29.60;;;;;;484248;246;1172;-73
2021/10/10 07:47:35;;;;;;;;;;;25.20;29.60;;;;;;483950;246;1447;-73
2021/10/10 07:49:31;;;;;;;;;;;25.30;29.60;;;;;;483636;246;1389;-73
2021/10/10 07:51:32;;;;;;;;;;;25.40;29.70;;;;;;484132;242;1175;-73
2021/10/10 07:53:33;;;;;;;;;;;25.40;29.70;;;;;;484158;246;952;-73
2021/10/10 07:55:35;;;;;;;;;;;25.30;29.70;;;;;;484127;246;1005;-73
2021/10/10 07:57:36;;;;;;;;;;;25.40;29.60;;;;;;484102;246;1181;-73
2021/10/10 07:59:37;;;;;;;;;;;25.20;29.70;;;;;;484106;246;1070;-73
2021/10/10 08:01:38;;;;;;;;;;;25.20;29.60;;;;;;484015;246;1221;-73
2021/10/10 08:03:40;;;;;;;;;;;25.40;29.60;;;;;;483994;246;2180;-73
2021/10/10 08:05:41;;;;;;;;;;;25.40;29.70;;;;;;484029;246;949;-73
2021/10/10 08:07:43;;;;;;;;;;;25.40;29.60;;;;;;484059;246;1085;-73
2021/10/10 08:09:44;;;;;;;;;;;25.50;29.80;;;;;;484120;246;957;-73
2021/10/10 08:11:45;;;;;;;;;;;25.60;29.60;;;;;;484111;246;1141;-73
2021/10/10 08:13:47;;;;;;;;;;;25.40;29.70;;;;;;484153;246;1095;-73
2021/10/10 08:15:48;;;;;;;;;;;25.70;29.60;;;;;;484066;246;1290;-74
2021/10/10 08:17:49;;;;;;;;;;;25.20;29.80;;;;;;484100;246;1088;-73
2021/10/10 08:19:51;;;;;;;;;;;25.60;29.80;;;;;;484037;246;951;-73
2021/10/10 08:21:52;;;;;;;;;;;25.40;29.80;;;;;;484057;246;1064;-73
2021/10/10 08:23:53;;;;;;;;;;;25.50;29.70;;;;;;484052;246;2129;-73
2021/10/10 08:25:55;;;;;;;;;;;25.60;29.70;;;;;;484065;246;1227;-73
2021/10/10 08:27:56;;;;;;;;;;;25.60;29.70;;;;;;484095;246;1205;-73
2021/10/10 08:29:57;;;;;;;;;;;25.60;29.80;;;;;;484113;246;1048;-73
2021/10/10 08:31:59;;;;;;;;;;;25.60;29.70;;;;;;484038;242;1301;-74
2021/10/10 08:34:00;;;;;;;;;;;25.60;29.70;;;;;;484161;246;957;-73
2021/10/10 08:36:02;;;;;;;;;;;25.40;29.90;;;;;;484056;246;1182;-73
2021/10/10 08:38:03;;;;;;;;;;;25.40;29.90;;;;;;484065;246;1458;-73
2021/10/10 08:40:04;;;;;;;;;;;25.50;29.90;;;;;;484108;246;1145;-73
2021/10/10 08:42:05;;;;;;;;;;;25.30;29.90;;;;;;484059;246;1198;-73
2021/10/10 08:44:07;;;;;;;;;;;25.60;29.90;;;;;;484131;246;2129;-73
2021/10/10 08:46:09;;;;;;;;;;;25.60;29.90;;;;;;484063;246;1239;-73
2021/10/10 08:48:09;;;;;;;;;;;25.60;29.70;;;;;;484063;246;1446;-73
2021/10/10 08:50:11;;;;;;;;;;;25.50;29.80;;;;;;484177;246;976;-73
2021/10/10 08:52:14;;;;;;;;;;;25.40;29.90;;;;;;484084;246;1165;-73
2021/10/10 08:54:13;;;;;;;;;;;25.40;29.90;;;;;;483944;246;1379;-73
2021/10/10 08:56:15;;;;;;;;;;;25.50;29.90;;;;;;483978;246;1176;-73
2021/10/10 08:58:17;;;;;;;;;;;25.60;29.90;;;;;;484054;246;969;-73
2021/10/10 09:00:20;;;;;;;;;;;25.50;30.00;;;;;;484087;246;1069;-74
2021/10/10 09:02:20;;;;;;;;;;;25.40;29.90;;;;;;483873;246;1388;-73
2021/10/10 09:04:21;;;;;;;;;;;25.60;29.90;;;;;;484004;246;2256;-73
2021/10/10 09:06:22;;;;;;;;;;;25.40;29.90;;;;;;484026;246;1145;-73
2021/10/10 09:08:23;;;;;;;;;;;25.70;29.90;;;;;;484142;246;1094;-74
2021/10/10 09:10:28;;;;;;;;;;;25.80;29.80;;;;;;484139;246;944;-73
2021/10/10 09:12:29;;;;;;;;;;;25.70;29.80;;;;;;484004;245;1190;-73
2021/10/10 09:14:31;;;;;;;;;;;25.50;29.90;;;;;;484094;246;1059;-73
2021/10/10 09:16:32;;;;;;;;;;;25.80;29.70;;;;;;484023;246;1251;-73
2021/10/10 09:18:33;;;;;;;;;;;25.80;29.70;;;;;;484097;246;1096;-73
2021/10/10 09:20:35;;;;;;;;;;;25.80;29.70;;;;;;484079;246;1170;-73
2021/10/10 09:22:36;;;;;;;;;;;25.50;29.80;;;;;;484061;246;1164;-73
2021/10/10 09:24:37;;;;;;;;;;;25.60;30.00;;;;;;484166;246;2183;-73
2021/10/10 09:26:39;;;;;;;;;;;25.40;30.00;;;;;;483288;246;1241;-73
2021/10/10 09:28:40;;;;;;;;;;;25.40;30.00;;;;;;483929;246;1011;-73
2021/10/10 09:30:41;;;;;;;;;;;25.60;29.90;;;;;;484145;246;921;-73
2021/10/10 09:32:42;;;;;;;;;;;25.50;30.00;;;;;;484106;246;1148;-73
2021/10/10 09:34:44;;;;;;;;;;;25.70;29.90;;;;;;484156;246;1220;-73
2021/10/10 09:36:45;;;;;;;;;;;25.60;29.90;;;;;;484075;246;1200;-73
2021/10/10 09:38:52;;;;;;;;;;;25.70;29.80;;;;;;484153;246;933;-74
2021/10/10 09:40:56;;;;;;;;;;;25.80;29.80;;;;;;483870;246;1339;-73
2021/10/10 09:42:56;;;;;;;;;;;25.80;29.90;;;;;;483682;246;1426;-73
2021/10/10 09:44:54;;;;;;;;;;;25.60;29.90;;;;;;482938;246;2188;-73
2021/10/10 09:46:55;;;;;;;;;;;25.90;29.80;;;;;;484048;246;1140;-73
2021/10/10 09:48:57;;;;;;;;;;;25.40;30.00;;;;;;484117;246;1101;-73
2021/10/10 09:50:58;;;;;;;;;;;25.50;30.00;;;;;;484034;246;1207;-73
2021/10/10 09:53:00;;;;;;;;;;;25.60;30.00;;;;;;484041;246;1129;-73
2021/10/10 09:55:01;;;;;;;;;;;25.50;30.00;;;;;;484090;246;963;-73
2021/10/10 09:57:03;;;;;;;;;;;25.70;29.90;;;;;;484034;246;1117;-74
2021/10/10 09:59:04;;;;;;;;;;;25.60;29.90;;;;;;484030;246;1007;-73
2021/10/10 10:01:06;;;;;;;;;;;25.90;29.80;;;;;;484053;246;1108;-73
2021/10/10 10:03:08;;;;;;;;;;;25.70;29.80;;;;;;484100;246;2152;-73
2021/10/10 10:05:08;;;;;;;;;;;25.80;29.80;;;;;;484059;246;1332;-73
2021/10/10 10:07:10;;;;;;;;;;;25.70;29.80;;;;;;484048;246;1184;-73
2021/10/10 10:09:11;;;;;;;;;;;25.60;30.00;;;;;;483056;246;1111;-73
2021/10/10 10:11:12;;;;;;;;;;;25.70;30.00;;;;;;484024;246;1120;-73
2021/10/10 10:13:14;;;;;;;;;;;25.70;30.00;;;;;;484141;246;1103;-73
2021/10/10 10:15:15;;;;;;;;;;;25.70;30.00;;;;;;484121;246;1067;-73
2021/10/10 10:17:17;;;;;;;;;;;25.70;30.00;;;;;;484131;246;1125;-73
2021/10/10 10:19:18;;;;;;;;;;;25.50;30.10;;;;;;484074;246;1478;-73
2021/10/10 10:21:19;;;;;;;;;;;25.80;30.00;;;;;;484096;246;1198;-73
2021/10/10 10:23:20;;;;;;;;;;;25.80;29.90;;;;;;484051;246;2200;-73
2021/10/10 10:25:22;;;;;;;;;;;25.70;30.00;;;;;;484017;246;964;-73
2021/10/10 10:27:23;;;;;;;;;;;25.50;30.00;;;;;;484002;246;1086;-73
2021/10/10 10:29:25;;;;;;;;;;;25.70;30.00;;;;;;484045;246;958;-74
2021/10/10 10:31:26;;;;;;;;;;;25.80;30.00;;;;;;484025;246;1472;-73
2021/10/10 10:33:27;;;;;;;;;;;25.60;30.00;;;;;;484036;246;1161;-73
2021/10/10 10:35:30;;;;;;;;;;;25.30;30.10;;;;;;484062;246;967;-73
2021/10/10 10:37:30;;;;;;;;;;;25.60;30.20;;;;;;484002;246;1349;-73
2021/10/10 10:39:31;;;;;;;;;;;25.50;30.10;;;;;;484095;246;958;-73
2021/10/10 10:41:33;;;;;;;;;;;25.40;30.10;;;;;;484048;246;930;-73
2021/10/10 10:43:34;;;;;;;;;;;25.60;30.10;;;;;;484052;246;2192;-74
2021/10/10 10:45:35;;;;;;;;;;;25.60;30.20;;;;;;484078;246;967;-73
2021/10/10 10:47:37;;;;;;;;;;;25.60;30.20;;;;;;484087;246;1112;-73
2021/10/10 10:49:38;;;;;;;;;;;25.70;30.10;;;;;;484102;246;1238;-73
2021/10/10 10:51:43;;;;;;;;;;;25.70;30.10;;;;;;484064;246;1123;-73
2021/10/10 10:53:40;;;;;;;;;;;25.80;30.00;;;;;;483782;246;1420;-74
2021/10/10 10:55:42;;;;;;;;;;;26.00;30.00;;;;;;484090;246;1056;-73
2021/10/10 10:57:45;;;;;;;;;;;26.00;29.90;;;;;;484078;246;1035;-73
2021/10/10 10:59:45;;;;;;;;;;;26.00;30.00;;;;;;484000;246;1416;-73
2021/10/10 11:01:46;;;;;;;;;;;25.90;30.00;;;;;;484101;246;1178;-73
2021/10/10 11:03:47;;;;;;;;;;;25.80;30.00;;;;;;484053;246;2145;-73
2021/10/10 11:05:49;;;;;;;;;;;25.90;30.00;;;;;;484094;246;1217;-73
2021/10/10 11:07:50;;;;;;;;;;;25.80;30.10;;;;;;484035;246;1360;-73
2021/10/10 11:09:51;;;;;;;;;;;25.70;30.30;;;;;;484019;246;925;-73
2021/10/10 11:11:53;;;;;;;;;;;25.60;30.50;;;;;;484063;246;1108;-73
2021/10/10 11:13:55;;;;;;;;;;;25.80;30.10;;;;;;484120;246;1189;-73
2021/10/10 11:15:57;;;;;;;;;;;25.90;30.30;;;;;;484068;238;1201;-73
2021/10/10 11:17:58;;;;;;;;;;;25.70;30.30;;;;;;484109;246;1425;-74
2021/10/10 11:19:59;;;;;;;;;;;25.80;30.30;;;;;;484123;246;917;-73
2021/10/10 11:22:00;;;;;;;;;;;25.70;30.10;;;;;;484099;246;1225;-73
2021/10/10 11:24:01;;;;;;;;;;;25.90;30.10;;;;;;484049;246;2133;-73
2021/10/10 11:26:03;;;;;;;;;;;25.70;30.30;;;;;;484080;246;980;-73
2021/10/10 11:28:04;;;;;;;;;;;25.90;30.20;;;;;;484061;246;1048;-73
2021/10/10 11:30:07;;;;;;;;;;;25.80;30.10;;;;;;484077;246;1109;-73
2021/10/10 11:32:08;;;;;;;;;;;25.80;30.20;;;;;;484032;246;1439;-73
2021/10/10 11:34:09;;;;;;;;;;;26.10;30.00;;;;;;484141;246;1148;-73
2021/10/10 11:36:10;;;;;;;;;;;25.50;30.20;;;;;;484048;246;1108;-73
2021/10/10 11:38:14;;;;;;;;;;;25.80;30.30;;;;;;484072;246;1165;-73
2021/10/10 11:40:14;;;;;;;;;;;25.80;30.10;;;;;;484049;246;1440;-73
2021/10/10 11:42:15;;;;;;;;;;;25.70;30.10;;;;;;483989;246;1278;-73
2021/10/10 11:44:17;;;;;;;;;;;25.80;30.00;;;;;;484039;246;2200;-73
2021/10/10 11:46:20;;;;;;;;;;;25.80;30.20;;;;;;484019;246;1116;-74
2021/10/10 11:48:19;;;;;;;;;;;26.00;30.00;;;;;;483928;246;1574;-73
2021/10/10 11:50:21;;;;;;;;;;;25.80;30.00;;;;;;484079;246;960;-73
2021/10/10 11:52:23;;;;;;;;;;;25.90;30.00;;;;;;483954;246;1183;-73
2021/10/10 11:54:24;;;;;;;;;;;26.00;30.00;;;;;;484014;246;1486;-73
2021/10/10 11:56:25;;;;;;;;;;;25.90;30.00;;;;;;484049;246;1197;-73
2021/10/10 11:58:29;;;;;;;;;;;26.00;30.00;;;;;;484115;246;1056;-74
2021/10/10 12:00:28;;;;;;;;;;;26.00;29.90;;;;;;483938;246;1408;-73